Time;durP1;ratioP1;P1;durP2;ratioP2;P2;SDS_P1;SDS_P2;PMS_P1;PMS_P2;Temp;Humidity;BMP_temperature;BMP_pressure;BME280_temperature;BME280_humidity;BME280_pressure;Samples;Min_cycle;Max_cycle;Signal;HPM_P1;HPM_P2
2023/02/06 00:02:37;;;;;;;9.35;3.80;;;18.30;91.60;;;;;;10486241;28;20071;-25
2023/02/06 00:07:40;;;;;;;8.13;2.90;;;18.30;91.70;;;;;;10480586;28;20063;-26
2023/02/06 00:12:42;;;;;;;9.40;3.47;;;18.30;91.60;;;;;;10481095;28;20086;-26
2023/02/06 00:17:44;;;;;;;9.43;3.20;;;18.20;91.80;;;;;;10484473;28;20131;-26
2023/02/06 00:22:47;;;;;;;7.45;2.35;;;18.30;91.60;;;;;;10483417;28;20068;-26
2023/02/06 00:27:49;;;;;;;7.35;2.80;;;18.20;91.60;;;;;;10483148;28;20072;-25
2023/02/06 00:32:51;;;;;;;7.00;3.58;;;18.20;91.60;;;;;;10490716;28;20473;-25
2023/02/06 00:37:54;;;;;;;6.38;2.90;;;18.10;91.70;;;;;;10481299;28;20076;-25
2023/02/06 00:42:56;;;;;;;9.68;3.50;;;18.10;91.70;;;;;;10482285;28;20057;-29
2023/02/06 00:47:58;;;;;;;9.20;3.70;;;18.20;91.30;;;;;;10477927;28;20049;-25
2023/02/06 00:53:01;;;;;;;6.80;2.60;;;18.20;91.40;;;;;;10476355;28;20094;-25
2023/02/06 00:58:03;;;;;;;7.60;2.38;;;18.20;91.50;;;;;;10474183;28;20584;-27
2023/02/06 01:03:05;;;;;;;5.72;2.22;;;18.30;91.20;;;;;;10496735;28;20133;-27
2023/02/06 01:08:08;;;;;;;7.40;2.58;;;18.10;91.30;;;;;;10475175;28;20787;-28
2023/02/06 01:13:10;;;;;;;10.55;2.63;;;18.10;91.20;;;;;;10472111;28;20145;-27
2023/02/06 01:18:12;;;;;;;6.40;2.40;;;18.20;91.20;;;;;;10485272;28;20114;-26
2023/02/06 01:23:17;;;;;;;9.80;3.15;;;18.10;91.20;;;;;;10479324;28;20132;-26
2023/02/06 01:28:19;;;;;;;6.88;2.92;;;18.10;91.10;;;;;;10472485;28;20461;-25
2023/02/06 01:33:21;;;;;;;6.25;2.33;;;18.10;91.10;;;;;;10474574;28;20053;-26
2023/02/06 01:38:24;;;;;;;4.55;2.15;;;18.10;91.30;;;;;;10485473;28;20049;-26
2023/02/06 01:43:29;;;;;;;8.73;2.38;;;18.00;91.30;;;;;;10473913;28;20417;-26
2023/02/06 01:48:35;;;;;;;6.13;2.65;;;18.00;91.10;;;;;;10484817;28;20127;-26
2023/02/06 01:53:41;;;;;;;15.32;2.30;;;18.00;91.30;;;;;;10486424;28;20136;-25
2023/02/06 01:58:46;;;;;;;7.07;1.70;;;18.00;91.00;;;;;;10481290;28;20041;-25
2023/02/06 02:03:51;;;;;;;5.38;2.05;;;18.00;91.00;;;;;;10482259;28;20048;-25
2023/02/06 02:08:56;;;;;;;7.15;2.03;;;17.90;91.10;;;;;;10479444;28;20040;-23
2023/02/06 02:13:59;;;;;;;5.90;1.92;;;18.00;91.00;;;;;;10471242;28;20441;-26
2023/02/06 02:19:30;;;;;;;8.20;2.45;;;18.00;91.00;;;;;;10481071;28;20084;-26
2023/02/06 02:24:56;;;;;;;5.97;1.85;;;18.00;90.90;;;;;;10475887;28;20048;-26
2023/02/06 02:30:27;;;;;;;7.18;1.80;;;18.00;90.80;;;;;;10476675;28;20041;-26
2023/02/06 02:35:38;;;;;;;4.68;1.60;;;17.90;91.00;;;;;;10486370;28;20076;-27
2023/02/06 02:40:51;;;;;;;6.93;2.03;;;18.00;90.80;;;;;;10478257;28;20040;-25
2023/02/06 02:45:57;;;;;;;5.53;1.70;;;18.00;90.80;;;;;;10484504;28;20484;-25
2023/02/06 02:51:01;;;;;;;8.52;2.08;;;18.00;90.80;;;;;;10474701;28;20464;-26
2023/02/06 02:56:10;;;;;;;4.30;1.70;;;17.90;90.80;;;;;;10472205;28;20076;-26
2023/02/06 03:01:16;;;;;;;5.93;1.75;;;17.90;90.70;;;;;;10476128;28;20156;-26
2023/02/06 03:06:40;;;;;;;9.02;2.05;;;17.90;90.70;;;;;;10465408;28;20163;-26
2023/02/06 03:11:46;;;;;;;4.03;1.40;;;17.90;90.50;;;;;;10474128;28;20489;-25
2023/02/06 03:16:52;;;;;;;4.70;1.52;;;17.90;90.60;;;;;;10468460;28;20102;-26
2023/02/06 03:21:55;;;;;;;4.25;1.45;;;17.90;90.70;;;;;;10482608;28;20072;-26
2023/02/06 03:27:00;;;;;;;6.15;1.85;;;17.90;90.60;;;;;;10483993;28;20132;-26
2023/02/06 03:32:05;;;;;;;4.63;1.60;;;17.80;90.60;;;;;;10493178;28;20056;-26
2023/02/06 03:37:10;;;;;;;4.90;1.48;;;17.90;90.40;;;;;;10479799;28;20109;-27
2023/02/06 03:42:14;;;;;;;6.15;1.90;;;17.80;90.40;;;;;;10485014;28;20501;-25
2023/02/06 03:47:18;;;;;;;6.53;1.58;;;17.80;90.40;;;;;;10489630;28;20044;-26
2023/02/06 03:52:26;;;;;;;3.90;1.50;;;17.80;90.40;;;;;;10478778;28;20083;-27
2023/02/06 03:57:30;;;;;;;4.20;1.65;;;17.80;90.40;;;;;;10482566;28;20045;-28
2023/02/06 04:02:32;;;;;;;5.38;1.48;;;17.70;90.40;;;;;;10484687;28;20072;-27
2023/02/06 04:07:36;;;;;;;3.38;1.25;;;17.80;90.40;;;;;;10486927;28;20055;-26
2023/02/06 04:12:38;;;;;;;3.97;1.60;;;17.80;90.30;;;;;;10479363;28;20122;-27
2023/02/06 04:17:40;;;;;;;4.20;1.25;;;17.80;90.30;;;;;;10489747;28;20080;-26
2023/02/06 04:22:43;;;;;;;3.70;1.52;;;17.80;90.30;;;;;;10486384;28;20121;-26
2023/02/06 04:27:45;;;;;;;7.47;1.70;;;17.70;90.20;;;;;;10484436;28;20053;-26
2023/02/06 04:32:47;;;;;;;6.50;1.53;;;17.70;90.30;;;;;;10476445;28;20045;-26
2023/02/06 04:37:50;;;;;;;3.23;1.20;;;17.70;90.00;;;;;;10486205;28;20506;-26
2023/02/06 04:42:52;;;;;;;4.63;1.63;;;17.70;90.20;;;;;;10490786;28;20459;-26
2023/02/06 04:47:54;;;;;;;3.10;1.10;;;17.70;89.70;;;;;;10473445;28;20072;-26
2023/02/06 04:52:57;;;;;;;2.53;1.23;;;17.70;90.00;;;;;;10479178;28;20072;-25
2023/02/06 04:57:59;;;;;;;6.90;1.40;;;17.70;89.70;;;;;;10480501;28;20851;-26
2023/02/06 05:03:01;;;;;;;3.30;1.10;;;17.70;89.80;;;;;;10484959;28;20048;-26
2023/02/06 05:08:04;;;;;;;3.28;1.23;;;17.70;89.80;;;;;;10469112;28;20127;-24
2023/02/06 05:13:06;;;;;;;4.32;1.30;;;17.70;90.20;;;;;;10489745;28;20102;-24
2023/02/06 05:18:08;;;;;;;5.95;1.77;;;17.60;90.10;;;;;;10480917;28;20056;-31
2023/02/06 05:23:12;;;;;;;3.40;1.10;;;17.70;89.70;;;;;;10482261;28;20107;-27
2023/02/06 05:28:13;;;;;;;5.45;1.45;;;17.70;89.50;;;;;;10466836;28;20059;-24
2023/02/06 05:33:15;;;;;;;6.80;2.10;;;17.50;89.70;;;;;;10472435;28;20137;-26
2023/02/06 05:38:19;;;;;;;3.13;1.40;;;17.60;89.60;;;;;;10475864;28;21288;-26
2023/02/06 05:43:20;;;;;;;7.28;1.75;;;17.50;90.00;;;;;;10475471;28;20624;-25
2023/02/06 05:48:22;;;;;;;7.30;1.40;;;17.60;89.80;;;;;;10470443;28;20130;-25
2023/02/06 05:53:25;;;;;;;3.17;1.20;;;17.60;90.00;;;;;;10462160;28;20071;-26
2023/02/06 05:58:27;;;;;;;3.70;1.30;;;17.70;90.00;;;;;;10463845;28;20167;-26
2023/02/06 06:03:29;;;;;;;5.37;1.40;;;17.70;89.80;;;;;;10463696;28;20072;-25
2023/02/06 06:08:32;;;;;;;4.53;1.27;;;17.80;89.50;;;;;;10469336;28;20055;-25
2023/02/06 06:13:34;;;;;;;5.68;1.52;;;17.80;89.40;;;;;;10484975;28;20079;-23
2023/02/06 08:24:13;;;;;;;11.35;3.72;;;17.00;92.10;;;;;;10526219;27;20129;-26
2023/02/06 08:29:15;;;;;;;10.65;3.90;;;16.90;92.70;;;;;;10527451;28;20079;-28
2023/02/06 08:34:17;;;;;;;7.63;3.10;;;16.90;92.70;;;;;;10527654;28;20052;-27
2023/02/06 08:39:20;;;;;;;8.95;2.90;;;16.90;92.40;;;;;;10528401;28;20056;-26
2023/02/06 08:44:22;;;;;;;9.05;3.17;;;17.00;92.40;;;;;;10526073;28;20115;-26
2023/02/06 08:49:25;;;;;;;7.90;2.53;;;17.00;92.60;;;;;;10524447;28;20192;-26
2023/02/06 08:54:29;;;;;;;6.57;2.45;;;17.10;91.90;;;;;;10527794;28;20052;-27
2023/02/06 08:59:33;;;;;;;6.10;3.00;;;17.10;91.70;;;;;;10523363;28;20106;-26
2023/02/06 09:04:36;;;;;;;10.15;2.90;;;17.10;91.50;;;;;;10527978;28;20050;-26
2023/02/06 09:09:39;;;;;;;7.90;3.40;;;17.10;91.30;;;;;;10521585;28;20078;-27
2023/02/06 09:14:41;;;;;;;15.25;4.68;;;17.00;92.10;;;;;;10530800;28;20044;-26
2023/02/06 09:19:43;;;;;;;5.03;2.17;;;17.00;92.70;;;;;;10533505;28;20053;-25
2023/02/06 09:24:47;;;;;;;6.33;1.97;;;17.20;92.80;;;;;;10494100;28;20067;-26
2023/02/06 09:29:49;;;;;;;10.68;2.47;;;17.40;91.70;;;;;;10492892;28;20084;-27
2023/02/06 09:34:51;;;;;;;8.43;1.90;;;17.40;91.60;;;;;;10489462;28;21811;-27
2023/02/06 09:39:54;;;;;;;6.90;2.30;;;17.80;93.30;;;;;;10494109;28;20053;-26
2023/02/06 09:45:02;;;;;;;8.57;2.17;;;17.40;92.60;;;;;;10494208;28;20553;-27
2023/02/06 09:50:07;;;;;;;12.10;3.40;;;16.90;94.10;;;;;;10504514;28;20103;-26
2023/02/06 09:55:18;;;;;;;8.27;2.47;;;16.60;84.40;;;;;;10500689;28;20147;-26
2023/02/06 10:00:40;;;;;;;12.75;2.47;;;16.90;94.50;;;;;;10476639;28;20139;-25
2023/02/06 15:32:00;;;;;;;4.45;1.48;;;18.00;89.80;;;;;;10508941;27;20125;-25
2023/02/06 15:37:20;;;;;;;7.93;1.80;;;18.10;87.00;;;;;;10519455;28;20040;-25
2023/02/06 15:42:23;;;;;;;5.25;1.40;;;18.30;85.40;;;;;;10532533;28;20050;-26
2023/02/06 15:47:26;;;;;;;;;;;18.50;84.00;;;;;;10522448;28;20160;-26
2023/02/06 15:52:34;;;;;;;4.90;1.10;;;18.70;82.10;;;;;;10527399;28;19924;-26
2023/02/06 15:57:40;;;;;;;3.33;1.00;;;18.90;81.20;;;;;;10537560;28;20143;-26
2023/02/06 16:02:43;;;;;;;3.50;1.08;;;19.10;80.10;;;;;;10528583;28;20109;-27
2023/02/06 16:07:48;;;;;;;5.20;1.10;;;19.20;79.50;;;;;;10519526;28;20576;-27
2023/02/06 16:12:51;;;;;;;3.63;1.02;;;19.20;79.20;;;;;;10510928;28;20102;-29
2023/02/06 16:17:55;;;;;;;5.85;1.80;;;19.20;79.20;;;;;;10532898;28;20040;-25
2023/02/06 16:23:18;;;;;;;5.63;1.60;;;19.20;80.10;;;;;;10528609;28;20143;-29
2023/02/06 16:28:23;;;;;;;6.15;1.23;;;19.30;79.50;;;;;;10521784;28;20152;-28
2023/02/06 16:33:33;;;;;;;6.78;2.30;;;19.30;79.70;;;;;;10524920;28;20102;-27
2023/02/06 16:38:35;;;;;;;7.13;1.88;;;19.40;79.50;;;;;;10522749;28;20610;-26
2023/02/06 16:43:37;;;;;;;7.00;1.25;;;19.40;79.00;;;;;;10503448;28;20083;-27
2023/02/06 16:48:40;;;;;;;6.07;1.40;;;19.40;79.00;;;;;;10504303;28;20139;-26
2023/02/06 16:53:42;;;;;;;5.55;1.20;;;19.40;78.60;;;;;;10500036;28;20149;-26
2023/02/06 16:58:44;;;;;;;6.03;1.90;;;19.40;78.70;;;;;;10502752;28;20490;-26
2023/02/06 17:03:48;;;;;;;6.53;0.95;;;19.50;78.40;;;;;;10496409;28;20125;-25
2023/02/06 17:08:51;;;;;;;4.35;1.40;;;19.40;78.50;;;;;;10494061;28;20057;-26
2023/02/06 17:13:53;;;;;;;3.65;1.00;;;19.50;78.20;;;;;;10486599;28;20094;-26
2023/02/06 17:18:56;;;;;;;6.88;1.52;;;19.40;78.40;;;;;;10482873;28;20059;-26
2023/02/06 17:23:59;;;;;;;5.18;1.38;;;19.40;78.40;;;;;;10487828;28;20500;-26
2023/02/06 17:29:00;;;;;;;8.25;2.58;;;19.40;78.60;;;;;;10486954;28;20083;-26
2023/02/06 17:34:04;;;;;;;7.93;2.83;;;19.40;78.70;;;;;;10487924;28;20072;-26
2023/02/06 17:39:06;;;;;;;5.93;2.55;;;19.40;79.40;;;;;;10496959;28;20062;-26
2023/02/06 17:44:10;;;;;;;9.10;2.97;;;19.40;78.90;;;;;;10504004;28;20056;-28
2023/02/06 17:49:14;;;;;;;15.85;3.47;;;19.40;78.80;;;;;;10505219;28;20158;-25
2023/02/06 17:54:16;;;;;;;15.65;3.42;;;19.40;78.90;;;;;;10490842;28;20135;-26
2023/02/06 17:59:18;;;;;;;8.73;2.40;;;19.40;78.80;;;;;;10500117;28;20123;-25
2023/02/06 18:04:23;;;;;;;;;;;19.30;78.90;;;;;;10495930;28;20824;-26
2023/02/06 18:09:25;;;;;;;16.45;4.50;;;19.30;79.30;;;;;;10499268;28;20563;-27
2023/02/06 18:14:27;;;;;;;24.95;11.38;;;19.40;79.40;;;;;;10507211;28;20676;-28
2023/02/06 18:19:30;;;;;;;29.40;11.82;;;19.00;82.50;;;;;;10498156;28;20036;-28
2023/02/06 18:24:32;;;;;;;32.58;12.68;;;18.70;83.90;;;;;;10502003;28;20057;-26
2023/02/06 18:29:37;;;;;;;27.52;12.02;;;18.60;84.70;;;;;;10497802;28;20056;-26
2023/02/06 18:34:41;;;;;;;29.58;13.60;;;18.40;85.50;;;;;;10486940;28;20044;-28
2023/02/06 18:39:43;;;;;;;28.27;13.65;;;18.30;85.90;;;;;;10489344;28;20052;-27
2023/02/06 18:44:45;;;;;;;32.92;13.95;;;18.20;86.50;;;;;;10502466;28;20101;-26
2023/02/06 18:49:48;;;;;;;38.58;16.20;;;18.00;87.70;;;;;;10497000;28;20643;-32
2023/02/06 18:54:50;;;;;;;33.83;16.42;;;18.00;88.80;;;;;;10499773;28;20052;-27
2023/02/06 18:59:52;;;;;;;34.22;16.05;;;18.10;87.30;;;;;;10486181;28;20858;-27
2023/02/06 19:04:57;;;;;;;36.15;16.70;;;18.00;88.60;;;;;;10488896;28;20474;-26
2023/02/06 19:10:00;;;;;;;34.58;13.98;;;18.00;88.10;;;;;;10487626;28;20130;-25
2023/02/06 19:15:04;;;;;;;34.45;15.27;;;18.00;88.60;;;;;;10492724;28;20064;-27
2023/02/06 19:20:09;;;;;;;28.63;13.13;;;18.10;88.80;;;;;;10481100;28;20056;-27
2023/02/06 19:25:12;;;;;;;30.52;13.35;;;18.10;88.80;;;;;;10493199;28;20157;-26
2023/02/06 19:30:14;;;;;;;25.17;11.23;;;18.00;88.10;;;;;;10507007;28;20527;-26
2023/02/06 19:35:17;;;;;;;21.05;9.90;;;18.00;89.30;;;;;;10498410;28;20083;-26
2023/02/06 19:40:19;;;;;;;19.23;8.43;;;18.20;88.90;;;;;;10502477;28;20135;-27
2023/02/06 19:45:21;;;;;;;18.27;8.38;;;18.20;88.70;;;;;;10478990;28;20072;-26
2023/02/06 19:50:24;;;;;;;20.40;8.37;;;18.20;87.90;;;;;;10486963;28;20062;-26
2023/02/06 19:55:26;;;;;;;19.17;8.57;;;18.20;88.90;;;;;;10489800;28;20478;-25
2023/02/06 20:00:28;;;;;;;14.15;6.40;;;18.70;85.80;;;;;;10488360;28;20048;-27
2023/02/06 20:05:32;;;;;;;17.35;6.60;;;18.80;84.90;;;;;;10481662;28;20070;-28
2023/02/06 20:10:36;;;;;;;16.23;6.35;;;18.80;85.20;;;;;;10482554;28;20048;-28
2023/02/06 20:15:39;;;;;;;14.90;6.43;;;18.80;84.40;;;;;;10486084;28;20059;-27
2023/02/06 20:20:42;;;;;;;;;;;18.80;84.00;;;;;;10481957;28;20048;-25
2023/02/06 20:25:44;;;;;;;25.65;12.40;;;18.30;85.50;;;;;;10488520;28;19928;-25
2023/02/06 20:30:46;;;;;;;35.20;16.55;;;17.90;87.90;;;;;;10494440;28;20788;-25
2023/02/06 20:35:49;;;;;;;37.40;17.63;;;17.70;89.30;;;;;;10492676;28;20043;-26
2023/02/06 20:40:52;;;;;;;60.65;28.35;;;17.60;90.00;;;;;;10485699;28;20459;-24
2023/02/06 20:45:54;;;;;;;45.00;21.80;;;17.40;90.40;;;;;;10494174;28;20040;-26
2023/02/06 20:50:59;;;;;;;51.40;25.47;;;17.50;90.20;;;;;;10487733;28;20123;-28
2023/02/06 20:56:01;;;;;;;42.83;21.55;;;17.50;90.10;;;;;;10482189;28;20044;-25
2023/02/06 21:01:12;;;;;;;51.63;24.00;;;17.40;90.00;;;;;;10492700;28;20131;-28
2023/02/06 21:06:15;;;;;;;40.72;22.67;;;17.40;89.60;;;;;;10493639;28;20040;-26
2023/02/06 21:11:18;;;;;;;42.45;19.00;;;17.30;90.10;;;;;;10498671;28;20054;-29
2023/02/06 21:16:20;;;;;;;16.48;6.80;;;17.80;87.40;;;;;;10493576;28;20072;-26
2023/02/06 21:21:25;;;;;;;19.90;6.83;;;17.90;87.60;;;;;;10508173;28;20071;-26
2023/02/06 21:26:28;;;;;;;21.10;9.80;;;18.30;85.10;;;;;;10506376;28;20058;-29
2023/02/06 21:31:32;;;;;;;21.02;9.35;;;18.30;84.60;;;;;;10485288;28;20516;-30
2023/02/06 21:36:38;;;;;;;22.73;9.30;;;18.40;83.90;;;;;;10485694;28;20400;-27
2023/02/06 21:41:39;;;;;;;20.90;8.52;;;18.40;83.50;;;;;;10497770;28;20049;-25
2023/02/06 21:46:41;;;;;;;17.80;8.40;;;18.30;83.60;;;;;;10492352;28;20049;-25
2023/02/06 21:51:45;;;;;;;16.27;8.20;;;18.30;83.80;;;;;;10498829;28;20078;-27
2023/02/06 21:56:47;;;;;;;19.42;9.32;;;18.30;83.70;;;;;;10500878;28;20479;-26
2023/02/06 22:01:48;;;;;;;18.90;7.90;;;18.30;83.60;;;;;;10500147;28;20052;-28
2023/02/06 22:06:52;;;;;;;24.07;10.07;;;18.20;83.90;;;;;;10490717;28;20659;-26
2023/02/06 22:11:54;;;;;;;20.33;9.20;;;18.20;83.70;;;;;;10504241;28;20530;-27
2023/02/06 22:16:56;;;;;;;;;;;18.20;83.70;;;;;;10500276;28;20054;-26
2023/02/06 22:21:59;;;;;;;15.95;8.68;;;18.10;83.80;;;;;;10491424;28;20026;-26
2023/02/06 22:27:01;;;;;;;22.13;9.75;;;18.20;83.40;;;;;;10489860;28;20080;-26
2023/02/06 22:32:04;;;;;;;19.27;9.30;;;18.10;83.70;;;;;;10485352;28;20138;-28
2023/02/06 22:37:08;;;;;;;26.42;9.00;;;18.00;83.90;;;;;;10484639;28;20151;-26
2023/02/06 22:42:10;;;;;;;23.83;9.55;;;18.00;83.40;;;;;;10489279;28;20056;-26
2023/02/06 22:47:12;;;;;;;22.02;8.15;;;18.00;83.30;;;;;;10467870;28;20145;-26
2023/02/06 22:57:46;;;;;;;20.13;6.68;;;18.00;83.20;;;;;;10397350;28;20053;-24
2023/02/06 23:02:48;;;;;;;14.10;6.72;;;18.00;83.30;;;;;;10474359;28;20135;-25
2023/02/06 23:07:51;;;;;;;17.80;7.32;;;18.00;83.00;;;;;;10478136;28;20052;-27
2023/02/06 23:12:53;;;;;;;14.95;7.78;;;17.90;82.80;;;;;;10487673;28;20541;-26
2023/02/06 23:17:55;;;;;;;16.55;7.40;;;17.90;82.80;;;;;;10481566;28;20134;-25
2023/02/06 23:22:58;;;;;;;15.67;6.13;;;17.90;82.90;;;;;;10481364;28;20512;-27
2023/02/06 23:28:00;;;;;;;18.30;6.85;;;17.90;82.70;;;;;;10481344;28;20147;-24
2023/02/06 23:33:02;;;;;;;11.68;5.78;;;17.90;81.80;;;;;;10484235;28;20048;-28
2023/02/06 23:38:07;;;;;;;13.18;5.82;;;17.90;81.90;;;;;;10486403;28;20064;-26
2023/02/06 23:43:10;;;;;;;11.88;5.60;;;17.90;81.90;;;;;;10482206;28;20044;-28
2023/02/06 23:48:12;;;;;;;10.35;4.93;;;17.80;81.40;;;;;;10490462;28;20055;-27
2023/02/06 23:53:15;;;;;;;11.70;5.63;;;17.80;81.60;;;;;;10495769;28;20091;-24
2023/02/06 23:58:17;;;;;;;13.55;5.80;;;17.80;81.70;;;;;;10496265;28;20087;-25
